createdAt,value
2023-04-14T00:00:07.306Z,45.92
2023-04-14T00:01:07.320Z,52.85
2023-04-14T00:02:07.363Z,45.60
2023-04-14T00:03:07.599Z,43.51
2023-04-14T00:04:07.426Z,44.31
2023-04-14T00:05:07.391Z,45.12
2023-04-14T00:06:07.283Z,43.99
2023-04-14T00:07:07.265Z,44.63
2023-04-14T00:08:07.260Z,45.12
2023-04-14T00:09:07.226Z,44.31
2023-04-14T00:10:07.252Z,45.44
2023-04-14T00:11:07.264Z,44.47
2023-04-14T00:12:07.232Z,45.44
2023-04-14T00:13:07.221Z,45.12
2023-04-14T00:14:07.201Z,43.83
2023-04-14T00:15:07.190Z,44.15
2023-04-14T00:16:07.204Z,44.63
2023-04-14T00:17:07.177Z,45.92
2023-04-14T00:18:07.211Z,46.73
2023-04-14T00:19:07.148Z,45.76
2023-04-14T00:20:07.176Z,44.31
2023-04-14T00:21:07.135Z,46.57
2023-04-14T00:22:07.138Z,48.02
2023-04-14T00:23:07.126Z,44.96
2023-04-14T00:24:07.125Z,43.99
2023-04-14T00:25:07.121Z,44.79
2023-04-14T00:26:07.091Z,46.41
2023-04-14T00:27:07.082Z,44.47
2023-04-14T00:28:07.093Z,43.99
2023-04-14T00:29:07.040Z,43.18
2023-04-14T00:30:07.082Z,43.18
2023-04-14T00:31:07.047Z,43.18
2023-04-14T00:32:07.001Z,43.18
2023-04-14T00:33:07.014Z,46.25
2023-04-14T00:34:07.003Z,43.34
2023-04-14T00:35:07.019Z,43.99
2023-04-14T00:36:06.999Z,43.99
2023-04-14T00:37:06.986Z,43.67
2023-04-14T00:38:06.979Z,48.66
2023-04-14T00:39:06.983Z,44.96
2023-04-14T00:40:06.944Z,44.79
2023-04-14T00:41:06.944Z,48.66
2023-04-14T00:42:06.904Z,44.79
2023-04-14T00:43:06.906Z,44.96
2023-04-14T00:44:06.892Z,43.67
2023-04-14T00:45:06.902Z,45.60
2023-04-14T00:46:06.987Z,45.12
2023-04-14T00:47:06.873Z,45.28
2023-04-14T00:48:06.876Z,51.40
2023-04-14T00:49:06.854Z,50.76
2023-04-14T00:50:06.866Z,43.83
2023-04-14T00:51:06.840Z,43.18
2023-04-14T00:52:06.832Z,48.98
2023-04-14T00:53:06.836Z,49.79
2023-04-14T00:54:06.832Z,47.21
2023-04-14T00:55:06.809Z,43.99
2023-04-14T00:56:06.796Z,44.63
2023-04-14T00:57:06.829Z,49.79
2023-04-14T00:58:06.783Z,45.92
2023-04-14T00:59:06.763Z,52.85
2023-04-14T01:00:06.775Z,48.02
2023-04-14T01:01:06.732Z,44.31
2023-04-14T01:02:06.824Z,43.51
2023-04-14T01:03:07.069Z,43.67
2023-04-14T01:04:06.900Z,44.96
2023-04-14T01:05:06.864Z,45.28
2023-04-14T01:06:06.707Z,49.95
2023-04-14T01:07:06.714Z,45.92
2023-04-14T01:08:06.677Z,47.70
2023-04-14T01:09:06.652Z,45.76
2023-04-14T01:10:06.705Z,44.47
2023-04-14T01:11:06.630Z,46.41
2023-04-14T01:12:06.617Z,43.99
2023-04-14T01:13:06.656Z,43.18
2023-04-14T01:14:06.640Z,46.57
2023-04-14T01:15:06.618Z,47.70
2023-04-14T01:16:06.685Z,46.57
2023-04-14T01:17:06.591Z,47.86
2023-04-14T01:18:06.619Z,48.66
2023-04-14T01:19:06.569Z,60.42
2023-04-14T01:20:06.580Z,46.73
2023-04-14T01:21:06.549Z,43.83
2023-04-14T01:22:06.546Z,43.83
2023-04-14T01:23:06.520Z,48.02
2023-04-14T01:24:06.585Z,49.15
2023-04-14T01:25:06.542Z,44.79
2023-04-14T01:26:06.497Z,48.66
2023-04-14T01:27:06.545Z,44.31
2023-04-14T01:28:06.539Z,45.92
2023-04-14T01:29:06.529Z,46.08
2023-04-14T01:30:06.494Z,47.53
2023-04-14T01:31:06.523Z,45.12
2023-04-14T01:32:06.509Z,44.63
2023-04-14T01:33:06.421Z,45.44
2023-04-14T01:34:06.398Z,44.47
2023-04-14T01:35:06.408Z,43.51
2023-04-14T01:36:06.388Z,43.67
2023-04-14T01:37:06.416Z,44.79
2023-04-14T01:38:06.415Z,47.37
2023-04-14T01:39:06.382Z,48.98
2023-04-14T01:40:06.395Z,52.37
2023-04-14T01:41:06.362Z,44.15
2023-04-14T01:42:06.353Z,43.99
2023-04-14T01:43:06.359Z,48.66
2023-04-14T01:44:06.362Z,44.63
2023-04-14T01:45:06.312Z,46.57
2023-04-14T01:46:06.368Z,44.31
2023-04-14T01:47:06.281Z,43.99
2023-04-14T01:48:06.377Z,47.37
2023-04-14T01:49:06.288Z,44.31
2023-04-14T01:50:06.277Z,43.34
2023-04-14T01:51:06.260Z,45.12
2023-04-14T01:52:06.249Z,46.08
2023-04-14T01:53:06.255Z,44.96
2023-04-14T01:54:06.267Z,43.99
2023-04-14T01:55:06.215Z,43.83
2023-04-14T01:56:06.215Z,47.37
2023-04-14T01:57:06.207Z,45.92
2023-04-14T01:58:06.207Z,43.99
2023-04-14T01:59:06.202Z,43.34
2023-04-14T02:00:06.198Z,43.83
2023-04-14T02:01:06.249Z,43.83
2023-04-14T02:02:06.226Z,43.34
2023-04-14T02:03:06.245Z,44.79
2023-04-14T02:04:06.273Z,44.79
2023-04-14T02:05:06.146Z,48.66
2023-04-14T02:06:06.128Z,47.21
2023-04-14T02:07:06.144Z,49.47
2023-04-14T02:08:06.081Z,44.15
2023-04-14T02:09:06.110Z,51.40
2023-04-14T02:10:06.101Z,43.83
2023-04-14T02:11:06.064Z,44.47
2023-04-14T02:12:06.035Z,46.08
2023-04-14T02:13:06.078Z,47.05
2023-04-14T02:14:06.029Z,47.05
2023-04-14T02:15:06.035Z,43.83
2023-04-14T02:16:06.074Z,43.83
2023-04-14T02:17:06.039Z,43.99
2023-04-14T02:18:05.982Z,47.05
2023-04-14T02:19:06.065Z,49.79
2023-04-14T02:20:05.968Z,51.40
2023-04-14T02:21:05.986Z,49.79
2023-04-14T02:22:05.957Z,47.21
2023-04-14T02:23:05.957Z,48.66
2023-04-14T02:24:05.990Z,44.96
2023-04-14T02:25:05.937Z,44.31
2023-04-14T02:26:05.968Z,44.47
2023-04-14T02:27:05.897Z,43.67
2023-04-14T02:28:05.919Z,45.92
2023-04-14T02:29:05.871Z,50.11
2023-04-14T02:30:05.944Z,47.86
2023-04-14T02:31:05.922Z,45.28
2023-04-14T02:32:05.954Z,44.79
2023-04-14T02:33:05.901Z,47.53
2023-04-14T02:34:05.842Z,53.33
2023-04-14T02:35:05.829Z,54.62
2023-04-14T02:36:05.850Z,48.34
2023-04-14T02:37:05.804Z,48.02
2023-04-14T02:38:05.796Z,45.44
2023-04-14T02:39:37.719Z,44.47
2023-04-14T02:40:05.799Z,47.53
2023-04-14T02:41:05.761Z,46.73
2023-04-14T02:42:05.782Z,51.40
2023-04-14T02:43:05.760Z,48.98
2023-04-14T02:44:06.764Z,49.95
2023-04-14T02:45:05.797Z,48.34
2023-04-14T02:46:05.789Z,47.05
2023-04-14T02:47:05.735Z,46.89
2023-04-14T02:48:05.704Z,46.89
2023-04-14T02:49:05.726Z,51.40
2023-04-14T02:50:05.739Z,49.31
2023-04-14T02:51:05.743Z,51.08
2023-04-14T02:52:05.680Z,49.31
2023-04-14T02:53:05.683Z,48.66
2023-04-14T02:54:05.633Z,47.53
2023-04-14T02:55:06.664Z,47.86
2023-04-14T02:56:05.661Z,48.18
2023-04-14T02:57:05.642Z,49.15
2023-04-14T02:58:05.675Z,47.86
2023-04-14T02:59:05.635Z,49.79
2023-04-14T03:00:05.622Z,52.21
2023-04-14T03:01:05.611Z,50.60
2023-04-14T03:02:05.641Z,51.40
2023-04-14T03:03:05.658Z,46.89
2023-04-14T03:04:05.725Z,50.60
2023-04-14T03:05:05.559Z,51.56
2023-04-14T03:06:05.596Z,50.43
2023-04-14T03:07:05.551Z,50.92
2023-04-14T03:08:05.541Z,51.72
2023-04-14T03:09:05.506Z,54.30
2023-04-14T03:10:05.546Z,49.79
2023-04-14T03:11:05.516Z,51.24
2023-04-14T03:12:05.481Z,48.82
2023-04-14T03:13:05.479Z,52.53
2023-04-14T03:14:05.486Z,49.63
2023-04-14T03:15:05.492Z,50.27
2023-04-14T03:16:05.488Z,49.63
2023-04-14T03:17:05.444Z,51.88
2023-04-14T03:18:05.508Z,52.37
2023-04-14T03:19:05.455Z,52.85
2023-04-14T03:20:05.419Z,50.92
2023-04-14T03:21:05.396Z,51.88
2023-04-14T03:22:05.404Z,52.37
2023-04-14T03:23:05.601Z,51.08
2023-04-14T03:24:05.396Z,49.31
2023-04-14T03:25:05.358Z,48.18
2023-04-14T03:26:05.349Z,47.37
2023-04-14T03:27:05.362Z,48.98
2023-04-14T03:28:05.301Z,47.21
2023-04-14T03:29:05.329Z,51.56
2023-04-14T03:30:05.409Z,49.47
2023-04-14T03:31:05.427Z,53.01
2023-04-14T03:32:05.296Z,50.27
2023-04-14T03:33:05.300Z,50.11
2023-04-14T03:34:06.271Z,50.43
2023-04-14T03:35:05.275Z,54.95
2023-04-14T03:36:05.247Z,53.33
2023-04-14T03:37:05.304Z,47.86
2023-04-14T03:38:06.219Z,51.40
2023-04-14T03:39:05.247Z,53.01
2023-04-14T03:40:05.200Z,49.95
2023-04-14T03:41:05.198Z,51.40
2023-04-14T03:42:05.198Z,49.79
2023-04-14T03:43:05.263Z,53.17
2023-04-14T03:44:05.212Z,53.01
2023-04-14T03:45:05.165Z,52.37
2023-04-14T03:46:05.184Z,49.95
2023-04-14T03:47:05.205Z,54.62
2023-04-14T03:48:05.246Z,50.11
2023-04-14T03:49:05.120Z,51.88
2023-04-14T03:50:05.117Z,53.01
2023-04-14T03:51:05.129Z,51.88
2023-04-14T03:52:05.088Z,49.95
2023-04-14T03:53:05.126Z,48.98
2023-04-14T03:54:05.083Z,50.27
2023-04-14T03:55:05.078Z,53.98
2023-04-14T03:56:05.081Z,50.60
2023-04-14T03:57:05.064Z,53.33
2023-04-14T03:58:05.054Z,52.53
2023-04-14T03:59:05.043Z,56.88
2023-04-14T04:00:05.027Z,52.69
2023-04-14T04:01:05.009Z,53.01
2023-04-14T04:02:05.083Z,53.01
2023-04-14T04:03:05.232Z,53.82
2023-04-14T04:04:05.060Z,51.40
2023-04-14T04:05:05.113Z,53.01
2023-04-14T04:06:05.022Z,54.95
2023-04-14T04:07:05.002Z,53.01
2023-04-14T04:08:05.009Z,54.46
2023-04-14T04:09:04.931Z,52.85
2023-04-14T04:10:04.948Z,51.40
2023-04-14T04:11:04.946Z,53.33
2023-04-14T04:12:04.922Z,54.30
2023-04-14T04:13:04.884Z,57.69
2023-04-14T04:14:04.936Z,53.50
2023-04-14T04:15:04.922Z,52.21
2023-04-14T04:16:04.937Z,53.82
2023-04-14T04:17:04.878Z,54.14
2023-04-14T04:18:04.847Z,55.59
2023-04-14T04:19:04.826Z,55.91
2023-04-14T04:20:06.828Z,55.43
2023-04-14T04:21:04.824Z,50.11
2023-04-14T04:22:04.800Z,54.46
2023-04-14T04:23:04.794Z,53.17
2023-04-14T04:24:04.827Z,53.98
2023-04-14T04:25:04.755Z,54.62
2023-04-14T04:26:04.787Z,52.53
2023-04-14T04:27:06.489Z,54.14
2023-04-14T04:28:04.751Z,56.24
2023-04-14T04:29:04.756Z,53.50
2023-04-14T04:30:04.732Z,56.56
2023-04-14T04:31:04.715Z,53.01
2023-04-14T04:32:04.755Z,56.56
2023-04-14T04:33:04.718Z,55.11
2023-04-14T04:34:04.733Z,55.43
2023-04-14T04:35:04.665Z,54.79
2023-04-14T04:36:04.667Z,51.08
2023-04-14T04:37:04.682Z,55.11
2023-04-14T04:38:04.640Z,54.46
2023-04-14T04:39:04.673Z,56.24
2023-04-14T04:40:04.645Z,56.56
2023-04-14T04:41:04.605Z,57.20
2023-04-14T04:42:04.595Z,56.72
2023-04-14T04:43:04.575Z,55.11
2023-04-14T04:44:04.622Z,53.50
2023-04-14T04:45:04.555Z,56.72
2023-04-14T04:46:04.602Z,52.85
2023-04-14T04:47:04.574Z,51.56
2023-04-14T04:48:04.623Z,54.95
2023-04-14T04:49:04.529Z,55.11
2023-04-14T04:50:04.523Z,53.17
2023-04-14T04:51:04.519Z,54.62
2023-04-14T04:52:04.506Z,56.40
2023-04-14T04:53:04.527Z,52.53
2023-04-14T04:54:04.491Z,55.91
2023-04-14T04:55:04.502Z,54.46
2023-04-14T04:56:04.511Z,56.24
2023-04-14T04:57:04.788Z,58.65
2023-04-14T04:58:04.459Z,57.52
2023-04-14T04:59:04.510Z,53.33
2023-04-14T05:00:04.489Z,57.20
2023-04-14T05:01:04.447Z,53.01
2023-04-14T05:02:04.439Z,56.07
2023-04-14T05:03:04.453Z,54.30
2023-04-14T05:04:04.475Z,54.46
2023-04-14T05:05:04.426Z,57.04
2023-04-14T05:06:04.390Z,56.40
2023-04-14T05:07:04.378Z,57.20
2023-04-14T05:08:04.363Z,57.36
2023-04-14T05:09:04.366Z,54.30
2023-04-14T05:10:04.404Z,58.33
2023-04-14T05:11:04.355Z,56.24
2023-04-14T05:12:04.341Z,58.17
2023-04-14T05:13:04.331Z,56.24
2023-04-14T05:14:04.301Z,58.17
2023-04-14T05:15:04.342Z,57.36
2023-04-14T05:16:04.343Z,57.85
2023-04-14T05:17:05.691Z,56.40
2023-04-14T05:18:07.324Z,55.27
2023-04-14T05:19:08.191Z,56.24
2023-04-14T05:20:06.187Z,58.17
2023-04-14T05:21:07.272Z,57.69
2023-04-14T05:22:07.190Z,59.78
2023-04-14T05:23:07.200Z,55.91
2023-04-14T05:24:07.696Z,54.46
2023-04-14T05:25:05.681Z,54.46
2023-04-14T05:26:16.341Z,54.95
2023-04-14T05:27:14.182Z,54.46
2023-04-14T05:28:05.755Z,56.56
2023-04-14T05:29:04.831Z,57.20
2023-04-14T05:30:04.773Z,57.52
2023-04-14T05:31:05.707Z,56.88
2023-04-14T05:32:06.700Z,55.43
2023-04-14T05:33:08.205Z,56.72
2023-04-14T05:34:07.196Z,55.91
2023-04-14T05:35:04.165Z,55.59
2023-04-14T05:36:06.713Z,56.07
2023-04-14T05:37:04.624Z,56.72
2023-04-14T05:38:05.371Z,56.56
2023-04-14T05:39:08.690Z,55.91
2023-04-14T05:40:04.689Z,56.56
2023-04-14T05:41:04.998Z,54.79
2023-04-14T05:42:04.696Z,56.56
2023-04-14T05:43:05.835Z,55.43
2023-04-14T05:44:04.939Z,55.27
2023-04-14T05:45:05.053Z,54.95
2023-04-14T05:46:05.937Z,56.24
2023-04-14T05:47:06.244Z,55.59
2023-04-14T05:48:07.221Z,57.04
2023-04-14T05:49:04.215Z,56.88
2023-04-14T05:50:03.971Z,58.17
2023-04-14T05:51:05.697Z,57.04
2023-04-14T05:52:04.814Z,55.91
2023-04-14T05:53:09.193Z,56.56
2023-04-14T05:54:11.707Z,56.56
2023-04-14T05:55:05.871Z,54.62
2023-04-14T05:56:05.188Z,55.75
2023-04-14T05:57:08.181Z,57.52
2023-04-14T05:58:06.194Z,57.04
2023-04-14T05:59:06.728Z,56.56
2023-04-14T06:00:07.195Z,57.04
2023-04-14T06:01:07.192Z,57.85
2023-04-14T06:02:10.277Z,56.56
2023-04-14T06:03:05.021Z,57.04
2023-04-14T06:04:07.282Z,56.56
2023-04-14T06:05:05.340Z,57.85
2023-04-14T06:06:08.768Z,56.24
2023-04-14T06:07:08.271Z,56.72
2023-04-14T06:08:04.843Z,54.95
2023-04-14T06:09:04.887Z,55.59
2023-04-14T06:10:05.380Z,58.81
2023-04-14T06:11:06.262Z,57.69
2023-04-14T06:12:09.202Z,57.20
2023-04-14T06:13:05.727Z,56.88
2023-04-14T06:14:08.295Z,56.88
2023-04-14T06:15:06.429Z,55.91
2023-04-14T06:16:07.770Z,56.72
2023-04-14T06:17:07.696Z,55.91
2023-04-14T06:18:05.703Z,57.36
2023-04-14T06:19:05.181Z,58.17
2023-04-14T06:20:05.736Z,61.23
2023-04-14T06:21:03.706Z,65.10
2023-04-14T06:22:05.227Z,59.46
2023-04-14T06:23:06.206Z,58.17
2023-04-14T06:24:06.189Z,55.91
2023-04-14T06:25:07.690Z,53.98
2023-04-14T06:26:05.767Z,56.56
2023-04-14T06:27:04.679Z,55.91
2023-04-14T06:28:06.268Z,56.07
2023-04-14T06:29:05.277Z,54.79
2023-04-14T06:30:04.715Z,56.56
2023-04-14T06:31:07.204Z,56.56
2023-04-14T06:32:04.723Z,54.46
2023-04-14T06:33:04.434Z,56.56
2023-04-14T06:34:05.696Z,56.40
2023-04-14T06:35:05.283Z,54.95
2023-04-14T06:36:06.226Z,56.56
2023-04-14T06:37:05.222Z,58.97
2023-04-14T06:38:04.185Z,58.49
2023-04-14T06:39:03.689Z,58.97
2023-04-14T06:40:03.496Z,57.85
2023-04-14T06:41:13.194Z,58.65
2023-04-14T06:42:04.598Z,59.14
2023-04-14T06:43:04.685Z,62.04
2023-04-14T06:44:04.649Z,58.65
2023-04-14T06:45:03.603Z,58.01
2023-04-14T06:46:05.745Z,60.26
2023-04-14T06:47:06.702Z,58.33
2023-04-14T06:48:06.300Z,58.01
2023-04-14T06:49:06.190Z,59.46
2023-04-14T06:50:06.271Z,59.30
2023-04-14T06:51:06.193Z,58.49
2023-04-14T06:52:08.316Z,57.52
2023-04-14T06:53:05.704Z,59.14
2023-04-14T06:54:05.324Z,59.94
2023-04-14T06:55:04.187Z,56.72
2023-04-14T06:56:06.179Z,57.85
2023-04-14T06:57:07.206Z,58.97
2023-04-14T06:58:05.242Z,58.81
2023-04-14T06:59:05.414Z,56.88
2023-04-14T07:00:03.860Z,60.91
2023-04-14T07:01:04.791Z,60.75
2023-04-14T07:02:04.767Z,58.97
2023-04-14T07:03:05.912Z,57.85
2023-04-14T07:04:06.105Z,56.40
2023-04-14T07:05:06.797Z,58.65
2023-04-14T07:06:07.185Z,54.95
2023-04-14T07:07:07.324Z,57.20
2023-04-14T07:08:10.016Z,59.30
2023-04-14T07:09:04.168Z,60.91
2023-04-14T07:10:04.217Z,56.88
2023-04-14T07:11:05.190Z,56.56
2023-04-14T07:12:04.693Z,53.66
2023-04-14T07:13:04.726Z,57.52
2023-04-14T07:14:10.692Z,62.52
2023-04-14T07:15:06.185Z,61.07
2023-04-14T07:16:07.313Z,60.91
2023-04-14T07:17:10.714Z,61.55
2023-04-14T07:18:06.736Z,62.20
2023-04-14T07:19:03.824Z,60.91
2023-04-14T07:20:08.268Z,60.26
2023-04-14T07:21:05.212Z,56.07
2023-04-14T07:22:03.747Z,53.33
2023-04-14T07:23:04.713Z,54.95
2023-04-14T07:24:05.278Z,56.24
2023-04-14T07:25:06.256Z,56.88
2023-04-14T07:26:06.777Z,56.72
2023-04-14T07:27:08.215Z,56.07
2023-04-14T07:28:04.483Z,55.11
2023-04-14T07:29:09.421Z,58.01
2023-04-14T07:30:05.999Z,53.50
2023-04-14T07:31:04.201Z,54.95
2023-04-14T07:32:04.681Z,54.46
2023-04-14T07:33:05.286Z,57.52
2023-04-14T07:34:03.752Z,52.53
2023-04-14T07:35:04.686Z,54.30
2023-04-14T07:36:10.740Z,54.62
2023-04-14T07:37:06.220Z,56.56
2023-04-14T07:38:05.180Z,56.88
2023-04-14T07:39:06.191Z,54.30
2023-04-14T07:40:20.245Z,56.56
2023-04-14T07:41:06.184Z,53.82
2023-04-14T07:42:03.680Z,56.56
2023-04-14T07:43:03.930Z,54.95
2023-04-14T07:44:05.714Z,56.88
2023-04-14T07:45:05.177Z,55.43
2023-04-14T07:46:03.891Z,54.62
2023-04-14T07:47:05.673Z,55.75
2023-04-14T07:48:06.204Z,57.52
2023-04-14T07:49:06.227Z,54.95
2023-04-14T07:50:05.820Z,56.07
2023-04-14T07:51:05.196Z,56.72
2023-04-14T07:52:05.178Z,54.14
2023-04-14T07:53:02.774Z,58.49
2023-04-14T07:54:09.754Z,56.24
2023-04-14T07:55:03.470Z,56.72
2023-04-14T07:56:04.000Z,55.75
2023-04-14T07:57:05.181Z,55.27
2023-04-14T07:58:04.278Z,55.91
2023-04-14T07:59:04.782Z,56.07
2023-04-14T08:00:04.703Z,57.69
2023-04-14T08:01:04.792Z,56.07
2023-04-14T08:02:05.929Z,56.88
2023-04-14T08:03:05.393Z,56.24
2023-04-14T08:04:07.476Z,57.69
2023-04-14T08:05:03.710Z,56.24
2023-04-14T08:06:07.355Z,54.95
2023-04-14T08:07:06.220Z,57.69
2023-04-14T08:08:04.341Z,56.72
2023-04-14T08:09:07.275Z,57.85
2023-04-14T08:10:10.178Z,56.40
2023-04-14T08:11:03.686Z,58.01
2023-04-14T08:12:08.734Z,57.36
2023-04-14T08:13:07.242Z,56.88
2023-04-14T08:14:03.688Z,56.40
2023-04-14T08:15:04.182Z,61.07
2023-04-14T08:16:05.341Z,57.69
2023-04-14T08:17:05.679Z,56.40
2023-04-14T08:18:03.750Z,57.69
2023-04-14T08:19:04.938Z,57.69
2023-04-14T08:20:03.739Z,56.72
2023-04-14T08:21:05.787Z,55.43
2023-04-14T08:22:07.678Z,58.01
2023-04-14T08:23:06.182Z,60.42
2023-04-14T08:24:02.603Z,59.78
2023-04-14T08:25:05.176Z,58.33
2023-04-14T08:26:03.183Z,55.43
2023-04-14T08:27:03.949Z,58.17
2023-04-14T08:28:17.648Z,58.17
2023-04-14T08:29:11.174Z,58.33
2023-04-14T08:30:05.174Z,56.56
2023-04-14T08:31:03.069Z,55.43
2023-04-14T08:32:04.324Z,56.24
2023-04-14T08:33:18.185Z,57.20
2023-04-14T08:34:04.487Z,57.20
2023-04-14T08:35:35.328Z,53.66
2023-04-14T08:36:06.678Z,57.20
2023-04-14T08:37:02.503Z,57.20
2023-04-14T08:38:04.196Z,56.72
2023-04-14T08:39:34.269Z,57.04
2023-04-14T08:40:03.202Z,56.72
2023-04-14T08:41:03.701Z,56.56
2023-04-14T08:42:02.366Z,57.20
2023-04-14T08:43:03.192Z,56.07
2023-04-14T08:44:02.255Z,54.46
2023-04-14T08:45:02.324Z,55.59
2023-04-14T08:46:02.337Z,57.04
2023-04-14T08:47:02.268Z,54.62
2023-04-14T08:48:02.284Z,56.56
2023-04-14T08:49:02.608Z,56.88
2023-04-14T08:50:02.235Z,58.33
2023-04-14T08:51:02.229Z,55.43
2023-04-14T08:52:02.279Z,52.69
2023-04-14T08:53:02.172Z,57.04
2023-04-14T08:54:02.450Z,55.27
2023-04-14T08:55:02.193Z,57.85
2023-04-14T08:56:02.198Z,57.04
2023-04-14T08:57:02.176Z,58.33
2023-04-14T08:58:02.148Z,56.88
2023-04-14T08:59:02.134Z,56.40
2023-04-14T09:00:02.154Z,57.36
2023-04-14T09:01:02.178Z,55.27
2023-04-14T09:02:02.188Z,56.72
2023-04-14T09:03:02.291Z,56.56
2023-04-14T09:04:02.548Z,58.17
2023-04-14T09:05:02.266Z,56.72
2023-04-14T09:06:02.091Z,56.72
2023-04-14T09:07:02.047Z,54.79
2023-04-14T09:08:02.065Z,54.79
2023-04-14T09:09:02.025Z,56.72
2023-04-14T09:10:02.065Z,55.11
2023-04-14T09:11:02.059Z,55.59
2023-04-14T09:12:02.024Z,56.88
2023-04-14T09:13:01.978Z,53.17
2023-04-14T09:14:02.131Z,54.62
2023-04-14T09:15:02.001Z,56.24
2023-04-14T09:16:02.044Z,55.43
2023-04-14T09:17:01.985Z,54.95
2023-04-14T09:18:02.050Z,56.07
2023-04-14T09:19:07.361Z,56.56
2023-04-14T09:20:35.463Z,51.72
2023-04-14T09:21:49.344Z,52.85
2023-04-14T09:22:02.891Z,53.98
2023-04-14T09:23:01.872Z,54.30
2023-04-14T09:24:02.143Z,55.75
2023-04-14T09:25:01.909Z,55.11
2023-04-14T09:26:01.872Z,54.62
2023-04-14T09:27:01.886Z,55.59
2023-04-14T09:28:01.923Z,55.91
2023-04-14T09:29:01.993Z,57.69
2023-04-14T09:30:01.827Z,58.17
2023-04-14T09:31:01.894Z,60.59
2023-04-14T09:32:01.856Z,55.59
2023-04-14T09:33:01.804Z,56.24
2023-04-14T09:34:02.115Z,56.07
2023-04-14T09:35:01.794Z,55.91
2023-04-14T09:36:01.808Z,57.20
2023-04-14T09:37:01.751Z,54.95
2023-04-14T09:38:01.783Z,55.91
2023-04-14T09:39:01.728Z,55.59
2023-04-14T09:40:01.735Z,56.72
2023-04-14T09:41:01.772Z,57.36
2023-04-14T09:42:01.722Z,56.40
2023-04-14T09:43:01.712Z,55.59
2023-04-14T09:44:01.719Z,56.24
2023-04-14T09:45:01.665Z,57.36
2023-04-14T09:46:01.668Z,52.85
2023-04-14T09:47:01.689Z,56.40
2023-04-14T09:48:01.648Z,55.75
2023-04-14T09:49:01.628Z,56.88
2023-04-14T09:50:01.621Z,56.88
2023-04-14T09:51:01.633Z,56.72
2023-04-14T09:52:01.645Z,56.56
2023-04-14T09:53:01.611Z,54.95
2023-04-14T09:54:01.924Z,53.98
2023-04-14T09:55:01.580Z,56.88
2023-04-14T09:56:01.585Z,56.72
2023-04-14T09:57:01.581Z,55.27
2023-04-14T09:58:01.554Z,56.72
2023-04-14T09:59:02.162Z,58.01
2023-04-14T10:00:01.543Z,58.01
2023-04-14T10:01:01.510Z,55.75
2023-04-14T10:02:01.679Z,54.30
2023-04-14T10:03:01.758Z,57.04
2023-04-14T10:04:01.545Z,55.59
2023-04-14T10:05:01.471Z,53.98
2023-04-14T10:06:01.447Z,54.62
2023-04-14T10:07:01.445Z,56.56
2023-04-14T10:08:01.498Z,54.46
2023-04-14T10:09:02.051Z,56.24
2023-04-14T10:10:01.415Z,56.88
2023-04-14T10:11:01.425Z,57.69
2023-04-14T10:12:01.421Z,54.46
2023-04-14T10:13:01.404Z,55.91
2023-04-14T10:14:01.403Z,56.88
2023-04-14T10:15:01.415Z,56.07
2023-04-14T10:16:01.458Z,54.14
2023-04-14T10:17:01.386Z,56.07
2023-04-14T10:18:01.409Z,57.85
2023-04-14T10:19:01.509Z,53.66
2023-04-14T10:20:01.337Z,55.91
2023-04-14T10:21:01.357Z,55.91
2023-04-14T10:22:01.317Z,55.11
2023-04-14T10:23:01.275Z,54.30
2023-04-14T10:24:01.274Z,54.30
2023-04-14T10:25:02.268Z,55.27
2023-04-14T10:26:01.258Z,56.88
2023-04-14T10:27:01.314Z,57.04
2023-04-14T10:28:01.261Z,55.43
2023-04-14T10:29:01.539Z,56.24
2023-04-14T10:30:01.214Z,56.56
2023-04-14T10:31:01.212Z,57.69
2023-04-14T10:32:01.340Z,55.75
2023-04-14T10:33:01.205Z,57.20
2023-04-14T10:34:01.186Z,55.59
2023-04-14T10:35:01.190Z,55.43
2023-04-14T10:36:01.195Z,53.82
2023-04-14T10:37:01.142Z,57.36
2023-04-14T10:38:01.144Z,52.85
2023-04-14T10:39:01.577Z,54.46
2023-04-14T10:40:01.136Z,53.33
2023-04-14T10:41:01.118Z,53.98
2023-04-14T10:42:01.112Z,54.79
2023-04-14T10:43:01.091Z,56.07
2023-04-14T10:44:01.073Z,55.59
2023-04-14T10:45:01.102Z,55.43
2023-04-14T10:46:01.048Z,55.59
2023-04-14T10:47:01.098Z,51.72
2023-04-14T10:48:01.092Z,52.53
2023-04-14T10:49:01.285Z,52.53
2023-04-14T10:50:01.019Z,52.85
2023-04-14T10:51:01.031Z,52.05
2023-04-14T10:52:01.036Z,53.50
2023-04-14T10:53:01.034Z,52.85
2023-04-14T10:54:00.984Z,50.27
2023-04-14T10:55:00.998Z,50.27
2023-04-14T10:56:00.984Z,52.85
2023-04-14T10:57:00.937Z,53.33
2023-04-14T10:58:00.928Z,52.53
2023-04-14T10:59:01.219Z,50.92
2023-04-14T11:00:00.980Z,52.37
2023-04-14T11:01:00.936Z,50.92
2023-04-14T11:02:01.078Z,52.53
2023-04-14T11:03:01.051Z,50.76
2023-04-14T11:04:00.961Z,52.85
2023-04-14T11:05:00.852Z,54.46
2023-04-14T11:06:00.871Z,53.82
2023-04-14T11:07:00.878Z,55.27
2023-04-14T11:08:02.642Z,54.30
2023-04-14T11:09:02.012Z,52.85
2023-04-14T11:10:00.816Z,54.14
2023-04-14T11:11:00.844Z,52.53
2023-04-14T11:12:00.835Z,56.56
2023-04-14T11:13:00.828Z,53.98
2023-04-14T11:14:00.804Z,52.53
2023-04-14T11:15:00.784Z,53.50
2023-04-14T11:16:00.820Z,56.56
2023-04-14T11:17:03.692Z,55.75
2023-04-14T11:18:01.772Z,52.85
2023-04-14T11:19:00.877Z,53.50
2023-04-14T11:20:00.775Z,53.17
2023-04-14T11:21:00.707Z,53.66
2023-04-14T11:22:00.726Z,54.14
2023-04-14T11:23:00.716Z,52.21
2023-04-14T11:24:00.692Z,54.95
2023-04-14T11:25:00.702Z,53.17
2023-04-14T11:26:00.658Z,51.88
2023-04-14T11:27:00.687Z,56.72
2023-04-14T11:28:00.629Z,52.85
2023-04-14T11:29:00.807Z,53.82
2023-04-14T11:30:00.646Z,51.56
2023-04-14T11:31:00.621Z,53.17
2023-04-14T11:32:00.740Z,53.01
2023-04-14T11:33:00.718Z,54.95
2023-04-14T11:34:00.573Z,53.33
2023-04-14T11:35:00.600Z,53.17
2023-04-14T11:36:00.666Z,53.66
2023-04-14T11:37:00.578Z,55.43
2023-04-14T11:38:00.573Z,53.17
2023-04-14T11:39:00.760Z,52.69
2023-04-14T11:40:00.568Z,52.37
2023-04-14T11:41:00.543Z,53.98
2023-04-14T11:42:00.532Z,53.50
2023-04-14T11:43:00.539Z,54.79
2023-04-14T11:44:00.521Z,53.66
2023-04-14T11:45:00.507Z,52.37
2023-04-14T11:46:00.500Z,53.66
2023-04-14T11:47:00.492Z,54.62
2023-04-14T11:48:00.511Z,52.85
2023-04-14T11:49:00.892Z,52.85
2023-04-14T11:50:00.414Z,53.66
2023-04-14T11:51:00.430Z,54.14
2023-04-14T11:52:00.433Z,57.36
2023-04-14T11:53:00.421Z,54.79
2023-04-14T11:54:00.447Z,52.37
2023-04-14T11:55:00.400Z,54.46
2023-04-14T11:56:00.413Z,54.95
2023-04-14T11:57:00.391Z,52.05
2023-04-14T11:58:00.406Z,54.95
2023-04-14T11:59:00.672Z,54.14
2023-04-14T12:00:00.381Z,54.14
2023-04-14T12:01:00.334Z,54.46
2023-04-14T12:02:00.329Z,53.33
2023-04-14T12:03:00.416Z,54.46
2023-04-14T12:04:00.487Z,56.88
2023-04-14T12:05:00.544Z,56.56
2023-04-14T12:06:00.723Z,56.56
2023-04-14T12:07:00.264Z,54.46
2023-04-14T12:08:00.240Z,55.75
2023-04-14T12:09:00.398Z,54.46
2023-04-14T12:10:00.312Z,55.27
2023-04-14T12:11:00.265Z,55.43
2023-04-14T12:12:00.218Z,54.62
2023-04-14T12:13:00.186Z,56.40
2023-04-14T12:14:00.216Z,54.46
2023-04-14T12:15:00.249Z,56.56
2023-04-14T12:16:00.207Z,53.98
2023-04-14T12:17:00.240Z,54.46
2023-04-14T12:18:00.283Z,54.46
2023-04-14T12:19:00.491Z,55.27
2023-04-14T12:20:00.140Z,55.75
2023-04-14T12:21:00.173Z,55.43
2023-04-14T12:22:00.147Z,56.56
2023-04-14T12:23:00.162Z,53.82
2023-04-14T12:24:00.136Z,55.43
2023-04-14T12:25:00.143Z,55.27
2023-04-14T12:26:00.062Z,55.75
2023-04-14T12:27:00.067Z,55.43
2023-04-14T12:28:00.115Z,54.30
2023-04-14T12:29:00.242Z,53.50
2023-04-14T12:30:00.043Z,54.79
2023-04-14T12:31:00.031Z,54.79
2023-04-14T12:32:00.209Z,53.50
2023-04-14T12:33:00.024Z,54.30
2023-04-14T12:34:00.033Z,53.98
2023-04-14T12:34:59.965Z,56.72
2023-04-14T12:35:59.995Z,54.14
2023-04-14T12:36:59.964Z,53.82
2023-04-14T12:37:59.988Z,55.11
2023-04-14T12:39:00.250Z,54.95
2023-04-14T12:39:59.941Z,56.07
2023-04-14T12:40:59.931Z,56.24
2023-04-14T12:41:59.934Z,57.04
2023-04-14T12:42:59.974Z,56.24
2023-04-14T12:43:59.897Z,54.95
2023-04-14T12:44:59.906Z,55.11
2023-04-14T12:45:59.880Z,55.75
2023-04-14T12:46:59.932Z,54.46
2023-04-14T12:47:59.900Z,53.17
2023-04-14T12:49:00.205Z,55.91
2023-04-14T12:49:59.838Z,54.46
2023-04-14T12:50:59.838Z,53.82
2023-04-14T12:51:59.825Z,53.50